Time;durP1;ratioP1;P1;durP2;ratioP2;P2;SDS_P1;SDS_P2;PMS_P1;PMS_P2;Temp;Humidity;BMP_temperature;BMP_pressure;BME280_temperature;BME280_humidity;BME280_pressure;Samples;Min_cycle;Max_cycle;Signal;HPM_P1;HPM_P2
2024/04/01 00:01:03;;;;;;;63.40;10.10;;;;;;;15.05;59.02;99080.66;105409;1260;99334;-78
2024/04/01 00:03:49;;;;;;;68.60;11.50;;;;;;;15.01;59.19;99080.09;105384;1260;99331;-77
2024/04/01 00:06:34;;;;;;;56.20;11.20;;;;;;;14.95;59.28;99076.03;105329;1264;99107;-78
2024/04/01 00:09:19;;;;;;;63.30;11.80;;;;;;;14.88;59.44;99076.39;105377;1265;102644;-80
2024/04/01 00:12:05;;;;;;;65.10;10.60;;;;;;;14.83;59.73;99085.64;105440;1266;100571;-78
2024/04/01 00:14:50;;;;;;;58.20;11.50;;;;;;;14.77;60.26;99091.06;105327;1264;99284;-78
2024/04/01 00:17:36;;;;;;;62.40;10.50;;;;;;;14.72;60.28;99093.10;105265;1264;99446;-78
2024/04/01 00:20:22;;;;;;;58.90;12.00;;;;;;;14.68;60.17;99092.95;105312;1263;99238;-77
2024/04/01 00:23:07;;;;;;;58.70;12.50;;;;;;;14.65;60.39;99091.89;105319;1264;102732;-78
2024/04/01 00:25:53;;;;;;;56.90;11.80;;;;;;;14.61;60.38;99092.64;105558;1263;99124;-79
2024/04/01 00:28:39;;;;;;;58.00;11.60;;;;;;;14.57;60.89;99093.13;105545;1261;99264;-77
2024/04/01 00:31:29;;;;;;;57.40;10.20;;;;;;;14.54;60.88;99093.08;105526;1260;99343;-77
2024/04/01 00:34:14;;;;;;;64.60;11.90;;;;;;;14.51;60.95;99092.48;105640;1260;99847;-78
2024/04/01 00:37:00;;;;;;;55.00;10.30;;;;;;;14.49;60.83;99090.63;105708;1260;102688;-78
2024/04/01 00:39:45;;;;;;;65.70;13.10;;;;;;;14.47;60.59;99087.31;105371;1264;99460;-79
2024/04/01 00:42:31;;;;;;;60.60;11.50;;;;;;;14.47;60.74;99089.36;105194;1261;99407;-77
2024/04/01 00:45:16;;;;;;;71.50;13.80;;;;;;;14.46;60.63;99082.84;105001;1260;99326;-77
2024/04/01 00:48:02;;;;;;;61.50;10.50;;;;;;;14.45;60.56;99081.37;104942;1264;99144;-76
2024/04/01 00:50:50;;;;;;;64.60;11.50;;;;;;;14.42;60.56;99081.16;105494;1261;102727;-79
2024/04/01 00:53:36;;;;;;;60.00;12.30;;;;;;;14.37;60.67;99080.38;105684;1261;100474;-79
2024/04/01 00:56:23;;;;;;;62.50;11.50;;;;;;;14.34;60.77;99076.79;105684;1264;99449;-78
2024/04/01 00:59:09;;;;;;;68.50;12.40;;;;;;;14.30;60.74;99077.48;105587;1264;99847;-78
2024/04/01 01:01:54;;;;;;;64.60;11.40;;;;;;;14.27;60.70;99079.63;105544;1263;99244;-79
2024/04/01 01:04:41;;;;;;;65.20;11.00;;;;;;;14.25;60.51;99079.97;105633;1265;103268;-79
2024/04/01 01:07:27;;;;;;;51.90;10.10;;;;;;;14.23;60.56;99079.23;105541;1260;99399;-78
2024/04/01 01:10:13;;;;;;;62.60;11.90;;;;;;;14.22;60.81;99073.42;105014;1264;99441;-78
2024/04/01 01:12:58;;;;;;;58.70;11.00;;;;;;;14.21;60.77;99071.29;104899;1264;99291;-78
2024/04/01 01:15:45;;;;;;;55.40;11.10;;;;;;;14.20;60.77;99067.56;104856;1260;100556;-77
2024/04/01 01:18:31;;;;;;;76.10;11.90;;;;;;;14.18;60.75;99067.02;105584;1264;103617;-78
2024/04/01 01:21:17;;;;;;;52.20;9.70;;;;;;;14.18;60.60;99069.85;105661;1260;99710;-79
2024/04/01 01:24:03;;;;;;;68.10;12.20;;;;;;;14.16;60.61;99073.38;105537;1261;99435;-77
2024/04/01 01:26:49;;;;;;;48.10;10.20;;;;;;;14.14;60.78;99071.62;105559;1261;99358;-78
2024/04/01 01:29:34;;;;;;;64.50;10.70;;;;;;;14.12;60.82;99069.91;105746;1264;99871;-78
2024/04/01 01:32:20;;;;;;;60.60;10.10;;;;;;;14.10;60.78;99071.24;104912;1264;102694;-78
2024/04/01 01:35:08;;;;;;;53.40;9.40;;;;;;;14.08;60.86;99068.63;104960;1260;99503;-77
2024/04/01 01:37:53;;;;;;;54.10;10.90;;;;;;;14.04;60.86;99067.85;105629;1263;99263;-78
2024/04/01 01:40:39;;;;;;;59.10;10.50;;;;;;;14.01;60.93;99066.84;105759;1264;99849;-79
2024/04/01 01:43:25;;;;;;;40.20;8.20;;;;;;;13.98;61.13;99067.50;105722;1264;99263;-77
2024/04/01 01:46:10;;;;;;;57.00;10.60;;;;;;;13.95;61.22;99072.51;105670;1260;102713;-79
2024/04/01 01:48:56;;;;;;;48.10;10.90;;;;;;;13.91;61.27;99080.58;105668;1263;99322;-79
2024/04/01 01:51:41;;;;;;;56.10;11.40;;;;;;;13.88;61.41;99082.04;105770;1266;99346;-78
2024/04/01 01:54:26;;;;;;;52.10;9.30;;;;;;;13.86;61.30;99084.23;105725;1263;99231;-79
2024/04/01 01:57:12;;;;;;;60.80;9.70;;;;;;;13.84;61.37;99083.42;105605;1261;99237;-78
2024/04/01 01:59:58;;;;;;;57.40;10.60;;;;;;;13.81;61.49;99081.16;105730;1264;102855;-78
2024/04/01 02:02:43;;;;;;;48.90;10.40;;;;;;;13.79;61.66;99078.45;105565;1260;101154;-79
2024/04/01 02:05:29;;;;;;;61.10;10.20;;;;;;;13.77;61.68;99076.68;105632;1259;99316;-79
2024/04/01 02:08:15;;;;;;;54.90;9.60;;;;;;;13.74;61.78;99081.54;105637;1265;100603;-79
2024/04/01 02:11:00;;;;;;;50.70;9.30;;;;;;;13.70;61.91;99080.55;105648;1261;100665;-78
2024/04/01 02:13:45;;;;;;;53.20;10.20;;;;;;;13.68;62.06;99081.43;105609;1264;102876;-78
2024/04/01 02:16:31;;;;;;;43.20;8.50;;;;;;;13.66;62.22;99081.39;105713;1259;101170;-79
2024/04/01 02:19:16;;;;;;;45.20;7.60;;;;;;;13.65;62.28;99083.37;105805;1260;99234;-79
2024/04/01 02:22:03;;;;;;;39.30;8.70;;;;;;;13.65;62.46;99082.77;105582;1261;99287;-79
2024/04/01 02:24:48;;;;;;;48.70;9.80;;;;;;;13.64;62.62;99079.31;105763;1259;99321;-79
2024/04/01 02:27:34;;;;;;;47.20;9.30;;;;;;;13.63;62.65;99078.48;105055;1266;104129;-78
2024/04/01 02:30:22;;;;;;;44.70;7.70;;;;;;;13.59;62.89;99078.38;104922;1264;99805;-77
2024/04/01 02:33:07;;;;;;;44.10;7.40;;;;;;;13.56;62.99;99073.64;104942;1271;99237;-76
2024/04/01 02:35:53;;;;;;;51.20;8.70;;;;;;;13.54;63.28;99070.11;104927;1262;99266;-77
2024/04/01 02:38:39;;;;;;;40.70;6.20;;;;;;;13.53;63.08;99066.54;105166;1261;99754;-78
2024/04/01 02:41:24;;;;;;;44.00;10.00;;;;;;;13.53;63.25;99062.71;105409;1263;102702;-79
2024/04/01 02:44:09;;;;;;;31.90;6.70;;;;;;;13.53;63.34;99065.04;105676;1260;99321;-79
2024/04/01 02:46:55;;;;;;;44.10;7.90;;;;;;;13.53;63.76;99066.80;105588;1259;99331;-78
2024/04/01 02:49:41;;;;;;;41.30;7.00;;;;;;;13.52;63.65;99058.89;105663;1263;99270;-79
2024/04/01 02:52:26;;;;;;;33.10;7.40;;;;;;;13.53;63.60;99059.48;105715;1261;99316;-79
2024/04/01 02:55:12;;;;;;;41.70;6.60;;;;;;;13.53;63.66;99055.35;105550;1261;102710;-80
2024/04/01 02:57:58;;;;;;;44.00;6.10;;;;;;;13.53;63.98;99054.98;105684;1260;100212;-78
2024/04/01 03:00:45;;;;;;;36.30;6.40;;;;;;;13.53;64.11;99059.86;105714;1263;99281;-79
2024/04/01 03:03:31;;;;;;;40.70;7.40;;;;;;;13.50;64.07;99059.94;105848;1264;99352;-80
2024/04/01 03:06:17;;;;;;;38.70;7.10;;;;;;;13.49;64.22;99058.23;105626;1264;99844;-80
2024/04/01 03:09:03;;;;;;;37.60;6.60;;;;;;;13.48;64.23;99062.13;105799;1260;102737;-79
2024/04/01 03:11:48;;;;;;;38.10;7.60;;;;;;;13.48;64.28;99060.85;105770;1259;100104;-80
2024/04/01 03:14:34;;;;;;;39.30;6.60;;;;;;;13.48;64.40;99059.49;105545;1261;99499;-79
2024/04/01 03:17:19;;;;;;;42.70;6.50;;;;;;;13.47;64.42;99060.13;105501;1260;99380;-78
2024/04/01 03:20:07;;;;;;;40.10;8.60;;;;;;;13.47;64.35;99063.02;105656;1262;99331;-80
2024/04/01 03:22:52;;;;;;;39.00;7.10;;;;;;;13.45;64.46;99066.14;106201;1259;103454;-80
2024/04/01 03:25:38;;;;;;;38.50;6.70;;;;;;;13.44;64.55;99066.91;105705;1261;100359;-78
2024/04/01 03:28:24;;;;;;;32.10;6.10;;;;;;;13.43;64.64;99070.08;105525;1264;99324;-79
2024/04/01 03:31:11;;;;;;;45.90;7.10;;;;;;;13.41;64.68;99072.19;105606;1263;99211;-80
2024/04/01 03:33:56;;;;;;;39.10;7.60;;;;;;;13.39;64.75;99073.11;105691;1263;99779;-78
2024/04/01 03:36:42;;;;;;;42.00;7.30;;;;;;;13.38;65.05;99074.48;105632;1264;102700;-79
2024/04/01 03:39:30;;;;;;;44.70;7.60;;;;;;;13.37;64.88;99074.14;105749;1262;100415;-79
2024/04/01 03:42:16;;;;;;;32.10;6.80;;;;;;;13.37;64.83;99072.50;105556;1261;99442;-78
2024/04/01 03:45:06;;;;;;;36.20;6.50;;;;;;;13.36;64.84;99075.20;105632;1260;99365;-78
2024/04/01 03:47:54;;;;;;;38.60;7.40;;;;;;;13.34;64.97;99075.21;105999;1259;99751;-80
2024/04/01 03:50:42;;;;;;;36.90;7.00;;;;;;;13.32;64.93;99073.89;106028;1259;103974;-79
2024/04/01 03:53:28;;;;;;;42.30;6.60;;;;;;;13.30;65.11;99077.56;105663;1260;209610;-79
2024/04/01 03:56:13;;;;;;;47.70;7.20;;;;;;;13.29;65.20;99073.41;105696;1263;99289;-80
2024/04/01 03:58:59;;;;;;;33.70;6.10;;;;;;;13.27;65.22;99070.15;105583;1260;97837;-78
2024/04/01 04:01:44;;;;;;;28.20;5.30;;;;;;;13.25;65.59;99061.39;105652;1260;101047;-78
2024/04/01 04:04:30;;;;;;;46.60;7.20;;;;;;;13.22;65.49;99057.10;105560;1261;102762;-78
2024/04/01 04:07:15;;;;;;;44.40;7.30;;;;;;;13.18;65.64;99049.33;105630;1260;100332;-79
2024/04/01 04:10:03;;;;;;;31.40;6.60;;;;;;;13.12;65.49;99045.20;105645;1263;99321;-79
2024/04/01 04:12:49;;;;;;;33.80;5.90;;;;;;;13.07;65.72;99045.97;105652;1262;99405;-79
2024/04/01 04:15:35;;;;;;;42.90;7.20;;;;;;;13.03;65.73;99044.89;106800;1265;99866;-79
2024/04/01 04:18:20;;;;;;;38.70;7.60;;;;;;;13.00;65.89;99045.90;105615;1260;102907;-79
2024/04/01 04:21:10;;;;;;;36.50;6.10;;;;;;;12.96;65.85;99041.09;105742;1264;99793;-79
2024/04/01 04:23:55;;;;;;;33.00;7.90;;;;;;;12.93;66.21;99040.60;105706;1263;99242;-79
2024/04/01 04:26:42;;;;;;;32.90;5.80;;;;;;;12.89;66.13;99042.52;105732;1274;99771;-79
2024/04/01 04:29:28;;;;;;;48.50;7.20;;;;;;;12.86;66.23;99041.31;105662;1261;100046;-78
2024/04/01 04:32:13;;;;;;;32.60;6.20;;;;;;;12.83;66.09;99041.92;105738;1260;102692;-80
2024/04/01 04:34:59;;;;;;;35.50;5.80;;;;;;;12.80;66.47;99044.77;105657;1261;99952;-78
2024/04/01 04:37:44;;;;;;;44.90;7.40;;;;;;;12.78;66.83;99051.59;105765;1260;99259;-79
2024/04/01 04:40:30;;;;;;;36.90;6.70;;;;;;;12.76;66.95;99050.95;105721;1263;99263;-78
2024/04/01 04:43:16;;;;;;;49.80;7.30;;;;;;;12.74;67.10;99055.55;105696;1259;99831;-79
2024/04/01 04:46:01;;;;;;;33.60;6.50;;;;;;;12.73;67.21;99057.63;105575;1259;103614;-78
2024/04/01 04:48:49;;;;;;;29.80;5.70;;;;;;;12.73;67.25;99064.45;105631;1263;100113;-78
2024/04/01 04:51:34;;;;;;;38.00;8.60;;;;;;;12.73;67.29;99074.60;105330;1262;99913;-79
2024/04/01 04:54:20;;;;;;;42.80;7.90;;;;;;;12.72;67.34;99080.43;105102;1264;100090;-79
2024/04/01 04:57:05;;;;;;;34.90;6.70;;;;;;;12.71;67.48;99092.89;105569;1259;99916;-78
2024/04/01 04:59:51;;;;;;;31.20;5.80;;;;;;;12.72;67.76;99101.06;105610;1260;103998;-79
2024/04/01 05:02:36;;;;;;;34.50;6.20;;;;;;;12.73;68.11;99103.89;105435;1260;100065;-78
2024/04/01 05:05:22;;;;;;;36.80;6.50;;;;;;;12.74;68.31;99105.52;105065;1260;99436;-79
2024/04/01 05:08:07;;;;;;;35.20;6.00;;;;;;;12.76;68.42;99105.23;104894;1264;99707;-77
2024/04/01 05:10:55;;;;;;;35.80;5.80;;;;;;;12.79;68.85;99106.54;105563;1263;99847;-79
2024/04/01 05:13:40;;;;;;;31.50;6.10;;;;;;;12.82;68.86;99106.71;105653;1264;102702;-79
2024/04/01 05:16:26;;;;;;;43.30;7.50;;;;;;;12.86;69.08;99105.61;105617;1261;100377;-78
2024/04/01 05:19:11;;;;;;;36.60;6.50;;;;;;;12.89;69.32;99099.75;105634;1264;99220;-78
2024/04/01 05:21:57;;;;;;;38.00;5.70;;;;;;;12.92;69.63;99091.92;105598;1261;99721;-79
2024/04/01 05:24:42;;;;;;;32.20;5.80;;;;;;;12.95;69.96;99080.58;105827;1259;97857;-78
2024/04/01 05:27:28;;;;;;;38.70;6.40;;;;;;;12.98;70.17;99077.24;105942;1263;104413;-78
2024/04/01 05:30:15;;;;;;;32.20;6.40;;;;;;;13.01;70.40;99075.54;105524;1259;99189;-79
2024/04/01 05:33:01;;;;;;;38.50;5.70;;;;;;;13.05;70.42;99080.34;105579;1259;99382;-79
2024/04/01 05:35:48;;;;;;;37.00;7.50;;;;;;;13.10;70.54;99084.09;105677;1259;100488;-79
2024/04/01 05:38:33;;;;;;;40.10;7.00;;;;;;;13.14;70.88;99082.34;105624;1262;99339;-79
2024/04/01 05:41:18;;;;;;;33.90;7.00;;;;;;;13.19;71.03;99082.48;105599;1262;103651;-78
2024/04/01 05:44:04;;;;;;;44.20;7.10;;;;;;;13.24;71.22;99080.85;105652;1263;99835;-79
2024/04/01 05:46:49;;;;;;;43.90;6.30;;;;;;;13.29;71.49;99082.27;105638;1261;99376;-80
2024/04/01 05:49:35;;;;;;;41.40;6.90;;;;;;;13.34;71.56;99073.13;105520;1264;99363;-79
2024/04/01 05:52:20;;;;;;;32.50;7.10;;;;;;;13.40;71.48;99071.14;105727;1263;99228;-79
2024/04/01 05:55:07;;;;;;;30.80;6.80;;;;;;;13.46;71.44;99071.62;105711;1265;103527;-79
2024/04/01 05:57:52;;;;;;;37.50;7.70;;;;;;;13.53;71.52;99072.13;105694;1260;99312;-80
2024/04/01 06:00:38;;;;;;;40.30;8.00;;;;;;;13.60;71.73;99070.58;105617;1259;100604;-80
2024/04/01 06:03:24;;;;;;;30.70;6.00;;;;;;;13.69;72.11;99072.02;105594;1265;99763;-79
2024/04/01 06:06:10;;;;;;;37.10;6.70;;;;;;;13.78;72.30;99068.31;105612;1263;101074;-79
2024/04/01 06:08:55;;;;;;;32.90;6.10;;;;;;;13.89;72.35;99067.35;105947;1259;102703;-80
2024/04/01 06:11:41;;;;;;;41.30;6.90;;;;;;;13.99;72.44;99070.79;106263;1259;100414;-79
2024/04/01 06:14:26;;;;;;;39.70;6.50;;;;;;;14.10;72.39;99069.84;105504;1264;99229;-77
2024/04/01 06:17:12;;;;;;;33.40;5.10;;;;;;;14.22;72.75;99072.29;105227;1260;99293;-78
2024/04/01 06:19:58;;;;;;;56.80;7.90;;;;;;;14.34;72.54;99067.48;105008;1261;99248;-78
2024/04/01 06:22:43;;;;;;;41.70;7.90;;;;;;;14.44;72.51;99062.83;105619;1264;102711;-78
2024/04/01 06:25:28;;;;;;;41.70;10.40;;;;;;;14.53;72.03;99070.70;105731;1263;99271;-78
2024/04/01 06:28:14;;;;;;;39.50;6.60;;;;;;;14.57;71.54;99060.79;105650;1259;99333;-79
2024/04/01 06:30:59;;;;;;;46.90;6.70;;;;;;;14.61;71.07;99060.36;105622;1262;99289;-79
2024/04/01 06:33:45;;;;;;;45.30;7.50;;;;;;;14.65;71.10;99068.00;105551;1264;99735;-79
2024/04/01 06:36:32;;;;;;;43.50;6.00;;;;;;;14.69;71.02;99073.94;105551;1265;103898;-79
2024/04/01 06:39:18;;;;;;;40.80;6.00;;;;;;;14.76;71.23;99067.23;105290;1264;99197;-77
2024/04/01 06:42:04;;;;;;;41.50;8.70;;;;;;;14.86;71.26;99061.64;104930;1264;99526;-77
2024/04/01 06:44:50;;;;;;;46.50;7.40;;;;;;;14.97;71.10;99068.56;105046;1264;99241;-78
2024/04/01 06:47:35;;;;;;;32.90;6.20;;;;;;;15.10;71.09;99069.25;105101;1263;99661;-78
2024/04/01 06:50:21;;;;;;;36.40;7.90;;;;;;;15.21;70.68;99063.55;104989;1260;102706;-79
2024/04/01 06:53:06;;;;;;;34.30;6.30;;;;;;;15.28;70.14;99071.72;104968;1259;99412;-78
2024/04/01 06:55:52;;;;;;;32.00;5.60;;;;;;;15.33;69.90;99081.31;105728;1260;99381;-79
2024/04/01 06:58:38;;;;;;;41.40;7.00;;;;;;;15.35;70.13;99076.92;105660;1260;100005;-79
2024/04/01 07:01:24;;;;;;;41.20;7.20;;;;;;;15.38;70.01;99082.08;105648;1263;99280;-78
2024/04/01 07:04:11;;;;;;;30.40;6.50;;;;;;;15.39;69.85;99089.75;105644;1262;102811;-79
2024/04/01 07:06:56;;;;;;;34.60;6.20;;;;;;;15.41;69.65;99094.30;105664;1260;99278;-78
2024/04/01 07:09:42;;;;;;;39.10;7.10;;;;;;;15.46;69.40;99092.60;105685;1264;99395;-79
2024/04/01 07:12:29;;;;;;;36.00;5.90;;;;;;;15.52;69.17;99089.36;105539;1265;99354;-79
2024/04/01 07:15:15;;;;;;;37.10;5.90;;;;;;;15.56;68.86;99087.52;105574;1259;99305;-77
2024/04/01 07:18:01;;;;;;;34.90;6.40;;;;;;;15.63;69.35;99089.20;105590;1259;103631;-82
2024/04/01 07:20:46;;;;;;;41.30;5.40;;;;;;;15.73;69.76;99091.39;106148;1259;99902;-86
2024/04/01 07:23:32;;;;;;;33.00;7.20;;;;;;;15.84;69.90;99097.01;105655;1259;99535;-78
2024/04/01 07:26:17;;;;;;;42.30;8.30;;;;;;;15.96;69.99;99098.13;105468;1259;99840;-84
2024/04/01 07:29:02;;;;;;;35.80;5.80;;;;;;;16.10;69.61;99093.70;105928;1259;99754;-83
2024/04/01 07:31:49;;;;;;;39.40;5.40;;;;;;;16.23;69.40;99091.75;105455;1264;105032;-82
2024/04/01 07:34:34;;;;;;;44.50;7.10;;;;;;;16.35;68.91;99088.75;105754;1259;99286;-82
2024/04/01 07:37:19;;;;;;;31.70;5.80;;;;;;;16.46;68.76;99088.87;105979;1262;99356;-81
2024/04/01 07:40:05;;;;;;;33.00;5.50;;;;;;;16.56;68.39;99084.84;105979;1259;97870;-80
2024/04/01 07:42:51;;;;;;;35.70;6.00;;;;;;;16.66;67.98;99078.69;105798;1259;99886;-79
2024/04/01 07:45:51;;;;;;;;;;;;;;;;;;;;;
2024/04/01 07:48:41;;;;;;;32.20;4.90;;;;;;;16.79;67.02;99076.16;106484;1260;100365;-84
2024/04/01 07:51:28;;;;;;;34.60;6.30;;;;;;;16.83;67.26;99074.52;106363;1261;99142;-87
2024/04/01 07:54:23;;;;;;;28.60;5.60;;;;;;;16.86;66.73;99073.10;105972;1265;99428;-83
2024/04/01 07:57:10;;;;;;;32.70;6.90;;;;;;;16.92;66.87;99071.50;105966;1266;99492;-82
2024/04/01 07:59:57;;;;;;;41.80;7.50;;;;;;;16.99;66.63;99071.26;106137;1262;104508;-82
2024/04/01 08:02:42;;;;;;;36.90;6.30;;;;;;;17.04;66.56;99067.98;106002;1261;100572;-83
2024/04/01 08:05:27;;;;;;;39.20;6.00;;;;;;;17.09;66.31;99076.45;105950;1259;99299;-83
2024/04/01 08:08:12;;;;;;;36.60;6.00;;;;;;;17.15;65.86;99085.66;105760;1261;100043;-82
2024/04/01 08:10:57;;;;;;;37.70;5.70;;;;;;;17.21;65.67;99082.97;105800;1259;99230;-81
2024/04/01 08:13:43;;;;;;;43.00;5.60;;;;;;;17.27;65.51;99080.52;106330;1259;104015;-91
2024/04/01 08:16:29;;;;;;;45.50;5.80;;;;;;;17.32;65.58;99066.77;106119;1261;100014;-88
2024/04/01 08:19:15;;;;;;;45.70;6.50;;;;;;;17.37;65.76;99061.20;106074;1259;99237;-79
2024/04/01 08:22:00;;;;;;;48.10;6.70;;;;;;;17.41;65.22;99069.01;105637;1264;97908;-80
2024/04/01 08:24:46;;;;;;;38.20;5.90;;;;;;;17.47;65.30;99083.73;105684;1261;99811;-78
2024/04/01 08:27:33;;;;;;;32.50;6.30;;;;;;;17.54;65.29;99085.23;105555;1262;102710;-79
2024/04/01 08:30:18;;;;;;;42.70;7.00;;;;;;;17.62;65.08;99081.95;105451;1260;100384;-78
2024/04/01 08:33:04;;;;;;;36.50;6.40;;;;;;;17.70;64.78;99081.80;105963;1260;99340;-78
2024/04/01 08:35:49;;;;;;;37.30;6.70;;;;;;;17.76;64.26;99084.30;105693;1261;99243;-80
2024/04/01 08:38:34;;;;;;;41.30;6.80;;;;;;;17.81;64.36;99098.27;105770;1259;99389;-79
2024/04/01 08:42:00;;;;;;;37.00;7.90;;;;;;;17.87;64.87;99108.64;106452;1260;102671;-79
2024/04/01 08:44:50;;;;;;;38.90;9.00;;;;;;;17.96;65.06;99100.66;105062;1268;99446;-79
2024/04/01 08:47:38;;;;;;;39.50;8.00;;;;;;;18.08;64.72;99091.99;105572;1264;99403;-79
2024/04/01 08:50:34;;;;;;;42.60;7.80;;;;;;;18.25;64.79;99087.80;105654;1263;99242;-79
2024/04/01 08:53:48;;;;;;;37.50;6.60;;;;;;;18.44;64.82;99086.33;105732;1265;99771;-80
2024/04/01 08:56:38;;;;;;;38.80;6.40;;;;;;;18.61;63.60;99085.27;105804;1262;111466;-80
2024/04/01 08:59:25;;;;;;;46.60;6.10;;;;;;;18.64;62.90;99075.62;105781;1265;99738;-79
2024/04/01 09:02:11;;;;;;;42.70;9.10;;;;;;;18.65;62.56;99082.29;106166;1258;99270;-79
2024/04/01 09:04:56;;;;;;;49.10;8.60;;;;;;;18.65;62.01;99080.33;105643;1259;99254;-79
2024/04/01 09:07:43;;;;;;;48.40;7.80;;;;;;;18.71;62.42;99076.08;106105;1263;99248;-79
2024/04/01 09:10:30;;;;;;;42.90;7.90;;;;;;;18.81;62.32;99066.83;106301;1259;102880;-80
2024/04/01 09:13:17;;;;;;;45.40;8.00;;;;;;;18.90;62.35;99072.64;106331;1263;100271;-79
2024/04/01 09:16:03;;;;;;;42.30;8.40;;;;;;;18.97;61.91;99069.52;106294;1263;99289;-79
2024/04/01 09:18:49;;;;;;;43.10;7.40;;;;;;;19.03;61.84;99061.89;105534;1263;99218;-78
2024/04/01 09:21:35;;;;;;;41.30;6.70;;;;;;;19.06;61.41;99059.61;105568;1264;99268;-80
2024/04/01 09:24:31;;;;;;;56.20;10.60;;;;;;;19.06;61.42;99053.79;105840;1259;103901;-80
2024/04/01 09:27:17;;;;;;;54.00;8.30;;;;;;;19.09;62.17;99051.23;106272;1260;99213;-79
2024/04/01 09:30:03;;;;;;;48.20;7.30;;;;;;;19.20;62.77;99046.23;106066;1267;99319;-80
2024/04/01 09:32:48;;;;;;;52.40;8.30;;;;;;;19.33;62.23;99042.42;106224;1260;99326;-81
2024/04/01 09:35:34;;;;;;;55.20;7.10;;;;;;;19.42;61.73;99047.42;106191;1259;99360;-80
2024/04/01 09:38:20;;;;;;;55.80;9.00;;;;;;;19.48;61.27;99049.02;106358;1259;104385;-81
2024/04/01 09:41:06;;;;;;;49.40;9.00;;;;;;;19.48;60.88;99054.02;106396;1259;100375;-81
2024/04/01 09:43:58;;;;;;;46.30;7.70;;;;;;;19.49;61.05;99054.34;106529;1261;99379;-82
2024/04/01 09:46:43;;;;;;;66.10;8.90;;;;;;;19.57;61.60;99055.59;106317;1259;99325;-81
2024/04/01 09:49:30;;;;;;;52.90;8.80;;;;;;;19.68;61.08;99050.13;106169;1265;99847;-80
2024/04/01 09:52:16;;;;;;;52.20;8.60;;;;;;;19.73;60.35;99044.11;105436;1259;104407;-80
2024/04/01 09:55:12;;;;;;;67.00;10.80;;;;;;;19.78;60.27;99039.84;105486;1260;99367;-80
2024/04/01 09:58:34;;;;;;;53.70;8.30;;;;;;;19.82;59.48;99029.36;105443;1259;99297;-81
2024/04/01 10:01:29;;;;;;;57.10;9.00;;;;;;;19.93;59.57;99031.29;105629;1259;99452;-80
2024/04/01 10:04:43;;;;;;;55.80;8.10;;;;;;;20.09;59.95;99034.94;105696;1259;99850;-80
2024/04/01 10:07:47;;;;;;;53.70;9.20;;;;;;;20.28;59.98;99027.98;105572;1262;103277;-80
2024/04/01 10:11:07;;;;;;;55.30;9.70;;;;;;;20.46;59.96;99017.14;105537;1263;99300;-78
2024/04/01 10:14:26;;;;;;;57.50;9.10;;;;;;;20.63;59.05;99010.46;105558;1260;99354;-80
2024/04/01 10:17:23;;;;;;;63.10;9.50;;;;;;;20.75;58.69;98999.96;106149;1265;99246;-81
2024/04/01 10:20:38;;;;;;;52.60;9.00;;;;;;;20.86;58.71;98993.50;106217;1260;99239;-81
2024/04/01 10:23:43;;;;;;;59.00;10.00;;;;;;;20.92;57.68;98989.67;106344;1259;103959;-82
2024/04/01 10:26:54;;;;;;;60.90;9.60;;;;;;;20.96;57.08;98985.27;106299;1259;99226;-80
2024/04/01 10:29:52;;;;;;;66.40;9.30;;;;;;;20.95;56.19;98986.25;106092;1265;99327;-80
2024/04/01 10:33:15;;;;;;;54.10;9.20;;;;;;;20.94;56.31;98985.45;106061;1262;99266;-80
2024/04/01 10:36:32;;;;;;;58.20;9.40;;;;;;;20.93;56.30;98978.27;106233;1260;99309;-81
2024/04/01 10:39:33;;;;;;;49.80;9.60;;;;;;;20.94;56.43;98983.00;105896;1261;102715;-82
2024/04/01 10:42:30;;;;;;;57.00;9.30;;;;;;;21.04;56.64;98979.02;106122;1264;99779;-80
2024/04/01 10:45:38;;;;;;;60.50;9.10;;;;;;;21.13;56.40;98980.10;106185;1259;99235;-80
2024/04/01 10:48:25;;;;;;;53.20;9.70;;;;;;;21.24;56.65;98990.70;106221;1265;99239;-80
2024/04/01 10:51:42;;;;;;;48.70;8.70;;;;;;;21.31;56.43;98996.75;106624;1263;99781;-79
2024/04/01 10:54:49;;;;;;;61.30;10.20;;;;;;;21.36;56.75;98996.20;105358;1265;102774;-79
2024/04/01 10:57:50;;;;;;;70.20;10.00;;;;;;;21.43;56.27;98990.32;105391;1259;99726;-80
2024/04/01 11:01:13;;;;;;;59.90;10.50;;;;;;;21.52;56.30;98985.98;106218;1262;99309;-80
2024/04/01 11:04:16;;;;;;;47.90;8.40;;;;;;;21.60;55.73;98984.05;106171;1262;99321;-81
2024/04/01 11:07:27;;;;;;;45.20;8.30;;;;;;;21.67;55.78;98970.10;105931;1265;100912;-79
2024/04/01 11:10:27;;;;;;;56.10;9.30;;;;;;;21.74;55.42;98963.22;105800;1263;102734;-79
2024/04/01 11:13:20;;;;;;;56.70;11.00;;;;;;;21.82;55.39;98961.34;105796;1262;99543;-85
2024/04/01 11:16:07;;;;;;;51.80;8.50;;;;;;;21.91;55.68;98959.61;105974;1260;99328;-83
2024/04/01 11:19:04;;;;;;;55.90;8.50;;;;;;;21.99;55.51;98956.64;105876;1263;99343;-78
2024/04/01 11:21:51;;;;;;;62.00;8.60;;;;;;;22.02;54.57;98950.63;105893;1262;99744;-79
2024/04/01 11:25:11;;;;;;;55.30;9.80;;;;;;;22.03;54.02;98951.81;105346;1259;102706;-85
2024/04/01 11:28:42;;;;;;;52.20;8.50;;;;;;;22.03;53.56;98943.48;105794;1265;101288;-83
2024/04/01 11:31:30;;;;;;;46.40;7.70;;;;;;;22.01;53.30;98940.29;105767;1264;99625;-82
2024/04/01 11:34:24;;;;;;;48.80;8.50;;;;;;;22.01;52.75;98944.92;105948;1265;99264;-84
2024/04/01 11:37:31;;;;;;;67.60;9.10;;;;;;;22.00;52.97;98934.85;105999;1261;99421;-82
2024/04/01 11:40:27;;;;;;;51.00;9.10;;;;;;;22.00;53.03;98923.70;106037;1260;102658;-85
2024/04/01 11:43:15;;;;;;;49.20;9.20;;;;;;;22.01;53.17;98922.48;105712;1260;100050;-86
2024/04/01 11:46:02;;;;;;;59.70;9.40;;;;;;;22.01;53.45;98915.54;106084;1262;99334;-88
2024/04/01 11:48:55;;;;;;;56.10;8.10;;;;;;;22.00;53.16;98912.33;105974;1259;99367;-86
2024/04/01 11:51:41;;;;;;;54.90;9.10;;;;;;;21.99;52.60;98915.45;106161;1265;97561;-90
2024/04/01 11:57:28;;;;;;;59.70;8.50;;;;;;;21.99;52.83;98909.57;105530;1264;99363;-78
2024/04/01 12:00:13;;;;;;;56.80;8.50;;;;;;;22.01;53.46;98906.80;105613;1265;99386;-78
2024/04/01 12:02:59;;;;;;;50.40;7.90;;;;;;;22.04;52.77;98904.13;105539;1262;99261;-86
2024/04/01 12:05:52;;;;;;;62.40;8.40;;;;;;;22.09;53.35;98904.58;105790;1260;99253;-82
2024/04/01 12:08:40;;;;;;;61.20;9.40;;;;;;;22.21;53.41;98903.73;106045;1260;102845;-83
2024/04/01 12:11:28;;;;;;;51.30;8.50;;;;;;;22.43;53.44;98900.55;105838;1262;100435;-83
2024/04/01 12:14:15;;;;;;;52.40;7.90;;;;;;;22.64;53.20;98900.17;105731;1264;97746;-84
2024/04/01 12:17:00;;;;;;;56.50;9.10;;;;;;;22.84;52.18;98899.14;105554;1264;99383;-77
2024/04/01 12:19:46;;;;;;;54.50;9.20;;;;;;;22.97;51.48;98892.98;104829;1267;101127;-78
2024/04/01 12:22:32;;;;;;;45.60;8.20;;;;;;;23.07;51.59;98888.34;105041;1262;102684;-78
2024/04/01 12:25:18;;;;;;;55.10;9.90;;;;;;;23.14;51.44;98878.34;105137;1267;99447;-76
2024/04/01 12:28:10;;;;;;;54.90;8.80;;;;;;;23.19;51.05;98865.27;105740;1262;100662;-87
2024/04/01 12:30:58;;;;;;;60.70;8.60;;;;;;;23.22;50.43;98859.35;105775;1267;99387;-81
2024/04/01 12:33:47;;;;;;;45.30;8.70;;;;;;;23.25;50.21;98860.42;106005;1261;99840;-80
2024/04/01 12:36:36;;;;;;;51.60;8.10;;;;;;;23.29;50.27;98853.80;106311;1262;102699;-85
2024/04/01 12:39:22;;;;;;;51.90;9.00;;;;;;;23.36;50.10;98846.29;105965;1266;99341;-82
2024/04/01 12:42:10;;;;;;;53.40;8.00;;;;;;;23.42;50.10;98849.50;105933;1265;99322;-82
2024/04/01 12:45:00;;;;;;;51.80;8.20;;;;;;;23.50;49.61;98850.39;105957;1262;99324;-81
2024/04/01 12:47:45;;;;;;;63.50;11.40;;;;;;;23.56;48.88;98851.44;105919;1262;99143;-83
2024/04/01 12:50:34;;;;;;;55.50;9.10;;;;;;;23.60;48.87;98849.63;106285;1260;104344;-79
2024/04/01 12:53:47;;;;;;;51.10;9.00;;;;;;;23.65;48.49;98843.48;105893;1266;100629;-84
2024/04/01 12:56:42;;;;;;;66.20;9.10;;;;;;;23.69;48.31;98833.80;105876;1261;99354;-87